| time (UTC) | temp F | wind direction | speed MPH | gust MPH | rain 1hr in | rain 24hr in | rain mn in | humidity % | barometer mb |
| 20260509063612 | 67 | 187 | 7.0 | 11.0 | 0.00 | 0.00 | 0.00 | 98 | 937.5 |
| 20260509062556 | 67 | 194 | 5.0 | 7.0 | 0.00 | 0.00 | 0.00 | 98 | 937.6 |
| 20260509061556 | 67 | 202 | 6.0 | 9.0 | 0.00 | 0.00 | 0.00 | 97 | 937.7 |
| 20260509060521 | 67 | 198 | 7.0 | 10.0 | 0.00 | 0.00 | 0.00 | 97 | 937.6 |
| 20260509055557 | 67 | 174 | 8.0 | 12.0 | 0.00 | 0.00 | 0.00 | 97 | 937.5 |
| 20260509054544 | 66 | 185 | 8.0 | 15.0 | 0.00 | 0.00 | 0.00 | 97 | 937.7 |
| 20260509053532 | 66 | 178 | 7.0 | 12.0 | 0.00 | 0.00 | 0.00 | 97 | 937.6 |
| 20260509052518 | 66 | 185 | 8.0 | 13.0 | 0.00 | 0.00 | 0.00 | 97 | 937.7 |
| 20260509051602 | 66 | 184 | 7.0 | 11.0 | 0.00 | 0.00 | 0.00 | 97 | 937.6 |
| 20260509050554 | 65 | 176 | 9.0 | 13.0 | 0.00 | 0.00 | 0.00 | 97 | 937.3 |
| 20260509045537 | 66 | 188 | 7.0 | 13.0 | 0.00 | 0.00 | 0.00 | 97 | 937.4 |
| 20260509044605 | 65 | 184 | 8.0 | 11.0 | 0.00 | 0.00 | 0.00 | 97 | 937.1 |
| 20260509043552 | 65 | 175 | 7.0 | 11.0 | 0.00 | 0.00 | 0.00 | 96 | 936.6 |
| 20260509042536 | 65 | 176 | 5.0 | 9.0 | 0.00 | 0.00 | 0.00 | 96 | 936.0 |
| 20260509041522 | 65 | 161 | 3.0 | 9.0 | 0.00 | 0.00 | 0.00 | 96 | 936.2 |
| 20260509040605 | 66 | 178 | 5.0 | 7.0 | 0.00 | 0.00 | 0.00 | 95 | 936.4 |
| 20260509035545 | 66 | 163 | 4.0 | 7.0 | 0.00 | 0.00 | 0.00 | 95 | 936.0 |
| 20260509034520 | 67 | 159 | 4.0 | 11.0 | 0.00 | 0.00 | 0.00 | 95 | 936.0 |
| 20260509033610 | 67 | 153 | 4.0 | 11.0 | 0.00 | 0.00 | 0.00 | 94 | 935.9 |
| 20260509032548 | 67 | 164 | 5.0 | 9.0 | 0.00 | 0.00 | 0.00 | 94 | 936.0 |
| 20260509031554 | 67 | 155 | 5.0 | 8.0 | 0.00 | 0.00 | 0.00 | 94 | 936.0 |
| 20260509030617 | 67 | 150 | 4.0 | 9.0 | 0.00 | 0.00 | 0.00 | 94 | 935.9 |
| 20260509025601 | 67 | 157 | 3.0 | 8.0 | 0.00 | 0.00 | 0.00 | 93 | 935.6 |
| 20260509024545 | 67 | 177 | 5.0 | 9.0 | 0.00 | 0.00 | 0.00 | 93 | 935.5 |
| 20260509023531 | 67 | 178 | 5.0 | 8.0 | 0.00 | 0.00 | 0.00 | 93 | 935.7 |
| 20260509022519 | 67 | 184 | 5.0 | 7.0 | 0.00 | 0.00 | 0.00 | 92 | 935.6 |
| 20260509021600 | 68 | 183 | 6.0 | 8.0 | 0.00 | 0.00 | 0.00 | 92 | 935.6 |
| 20260509020539 | 68 | 181 | 6.0 | 8.0 | 0.00 | 0.00 | 0.00 | 91 | 935.5 |
| 20260509015520 | 68 | 178 | 4.0 | 7.0 | 0.00 | 0.00 | 0.00 | 90 | 935.3 |
| 20260509014605 | 69 | 183 | 3.0 | 8.0 | 0.00 | 0.00 | 0.00 | 90 | 935.1 |
| 20260509013544 | 69 | 176 | 5.0 | 8.0 | 0.00 | 0.00 | 0.00 | 90 | 935.0 |
| 20260509012528 | 69 | 178 | 6.0 | 8.0 | 0.00 | 0.00 | 0.00 | 88 | 934.8 |
| 20260509011631 | 70 | 179 | 5.0 | 10.0 | 0.00 | 0.00 | 0.00 | 87 | 934.7 |
| 20260509010553 | 71 | 173 | 6.0 | 10.0 | 0.00 | 0.00 | 0.00 | 86 | 934.7 |
| 20260509005530 | 71 | 174 | 7.0 | 11.0 | 0.00 | 0.00 | 0.00 | 86 | 934.6 |
| 20260509004634 | 71 | 171 | 8.0 | 12.0 | 0.00 | 0.00 | 0.00 | 85 | 934.6 |
| 20260509003601 | 72 | 163 | 9.0 | 16.0 | 0.00 | 0.00 | 0.00 | 84 | 934.7 |
| 20260509002544 | 72 | 170 | 9.0 | 15.0 | 0.00 | 0.00 | 0.00 | 83 | 934.7 |
| 20260509001551 | 72 | 171 | 7.0 | 13.0 | 0.00 | 0.00 | 0.00 | 84 | 934.6 |
| 20260509000537 | 73 | 141 | 7.0 | 16.0 | 0.00 | 0.00 | 0.00 | 81 | 934.6 |
| 20260508235605 | 74 | 162 | 6.0 | 19.0 | 0.00 | 0.00 | 0.00 | 79 | 934.8 |
| 20260508234546 | 74 | 163 | 8.0 | 16.0 | 0.00 | 0.00 | 0.00 | 80 | 934.8 |
| 20260508233528 | 74 | 170 | 12.0 | 18.0 | 0.00 | 0.00 | 0.00 | 80 | 934.8 |
| 20260508232631 | 75 | 176 | 12.0 | 20.0 | 0.00 | 0.00 | 0.00 | 79 | 934.9 |
| 20260508231554 | 75 | 168 | 9.0 | 16.0 | 0.00 | 0.00 | 0.00 | 78 | 934.9 |
| 20260508230536 | 74 | 179 | 11.0 | 17.0 | 0.00 | 0.00 | 0.00 | 80 | 934.9 |
| 20260508225523 | 75 | 188 | 10.0 | 16.0 | 0.00 | 0.00 | 0.00 | 78 | 935.0 |
| 20260508224611 | 75 | 169 | 10.0 | 18.0 | 0.00 | 0.00 | 0.00 | 78 | 935.0 |
| 20260508223557 | 75 | 174 | 11.0 | 19.0 | 0.00 | 0.00 | 0.00 | 78 | 935.2 |
| 20260508222544 | 75 | 176 | 11.0 | 19.0 | 0.00 | 0.00 | 0.00 | 77 | 935.1 |
| 20260508221528 | 76 | 184 | 12.0 | 21.0 | 0.00 | 0.00 | 0.00 | 76 | 935.1 |
| 20260508220515 | 76 | 188 | 12.0 | 18.0 | 0.00 | 0.00 | 0.00 | 76 | 935.0 |
| 20260508215604 | 77 | 179 | 9.0 | 18.0 | 0.00 | 0.00 | 0.00 | 76 | 935.3 |
| 20260508214550 | 76 | 162 | 9.0 | 17.0 | 0.00 | 0.00 | 0.00 | 76 | 935.2 |
| 20260508213531 | 76 | 166 | 8.0 | 15.0 | 0.00 | 0.00 | 0.00 | 77 | 935.4 |
| 20260508212614 | 75 | 177 | 7.0 | 13.0 | 0.00 | 0.00 | 0.00 | 79 | 935.4 |
| 20260508211600 | 75 | 176 | 10.0 | 15.0 | 0.00 | 0.00 | 0.00 | 77 | 935.4 |
| 20260508210547 | 75 | 172 | 9.0 | 15.0 | 0.00 | 0.00 | 0.00 | 77 | 935.7 |
| 20260508205533 | 75 | 170 | 7.0 | 15.0 | 0.00 | 0.00 | 0.00 | 77 | 935.6 |
| 20260508204520 | 76 | 171 | 8.0 | 16.0 | 0.00 | 0.00 | 0.00 | 76 | 935.7 |
| 20260508203623 | 76 | 193 | 10.0 | 17.0 | 0.00 | 0.00 | 0.00 | 74 | 935.8 |
| 20260508202545 | 76 | 166 | 6.0 | 12.0 | 0.00 | 0.00 | 0.00 | 76 | 935.9 |
| 20260508201543 | 75 | 183 | 5.0 | 11.0 | 0.00 | 0.00 | 0.00 | 76 | 936.0 |
| 20260508200606 | 75 | 198 | 6.0 | 9.0 | 0.00 | 0.00 | 0.00 | 77 | 936.3 |
| 20260508195546 | 75 | 186 | 10.0 | 15.0 | 0.00 | 0.00 | 0.00 | 76 | 936.2 |
| 20260508194528 | 76 | 202 | 9.0 | 13.0 | 0.00 | 0.00 | 0.00 | 74 | 936.3 |
| 20260508193605 | 76 | 186 | 6.0 | 13.0 | 0.00 | 0.00 | 0.00 | 75 | 936.5 |
| 20260508192547 | 76 | 207 | 9.0 | 15.0 | 0.00 | 0.00 | 0.00 | 74 | 936.5 |
| 20260508191534 | 75 | 201 | 9.0 | 14.0 | 0.00 | 0.00 | 0.00 | 76 | 936.4 |
| 20260508190519 | 75 | 182 | 7.0 | 15.0 | 0.00 | 0.00 | 0.00 | 75 | 936.5 |
| 20260508185607 | 74 | 208 | 9.0 | 17.0 | 0.00 | 0.00 | 0.00 | 78 | 936.7 |
| 20260508184553 | 74 | 193 | 11.0 | 16.0 | 0.00 | 0.00 | 0.00 | 78 | 936.9 |
| 20260508183536 | 74 | 173 | 10.0 | 15.0 | 0.00 | 0.00 | 0.00 | 78 | 936.9 |
| 20260508182518 | 74 | 215 | 10.0 | 18.0 | 0.00 | 0.00 | 0.00 | 78 | 937.0 |
| 20260508181601 | 74 | 194 | 11.0 | 16.0 | 0.00 | 0.01 | 0.00 | 79 | 937.0 |
| 20260508180539 | 74 | 184 | 5.0 | 12.0 | 0.00 | 0.03 | 0.00 | 79 | 937.0 |
| 20260508175516 | 73 | 186 | 6.0 | 11.0 | 0.00 | 0.04 | 0.00 | 82 | 937.2 |
| 20260508174604 | 72 | 177 | 3.0 | 9.0 | 0.00 | 0.05 | 0.00 | 81 | 937.1 |
| 20260508173615 | 72 | 191 | 5.0 | 10.0 | 0.00 | 0.05 | 0.00 | 81 | 937.3 |
| 20260508172542 | 72 | 203 | 9.0 | 13.0 | 0.00 | 0.05 | 0.00 | 82 | 937.3 |
| 20260508171528 | 71 | 166 | 5.0 | 9.0 | 0.00 | 0.05 | 0.00 | 83 | 937.6 |
| 20260508170603 | 71 | 211 | 8.0 | 12.0 | 0.00 | 0.05 | 0.00 | 83 | 937.6 |
| 20260508165545 | 71 | 194 | 6.0 | 10.0 | 0.00 | 0.05 | 0.00 | 84 | 937.7 |
| 20260508164529 | 70 | 188 | 6.0 | 10.0 | 0.00 | 0.05 | 0.00 | 85 | 937.6 |
| 20260508163515 | 69 | 191 | 6.0 | 9.0 | 0.00 | 0.05 | 0.00 | 86 | 937.8 |
| 20260508162619 | 68 | 189 | 7.0 | 12.0 | 0.00 | 0.05 | 0.00 | 86 | 938.0 |
| 20260508161536 | 68 | 190 | 9.0 | 13.0 | 0.00 | 0.05 | 0.00 | 87 | 938.1 |
| 20260508160518 | 67 | 190 | 8.0 | 12.0 | 0.00 | 0.05 | 0.00 | 88 | 938.1 |
| 20260508155602 | 66 | 191 | 6.0 | 10.0 | 0.00 | 0.06 | 0.00 | 89 | 938.1 |
| 20260508154549 | 65 | 196 | 8.0 | 11.0 | 0.00 | 0.07 | 0.00 | 91 | 937.9 |
| 20260508153556 | 64 | 183 | 6.0 | 9.0 | 0.00 | 0.07 | 0.00 | 91 | 938.0 |
| 20260508152523 | 64 | 174 | 7.0 | 10.0 | 0.00 | 0.07 | 0.00 | 92 | 938.0 |
| 20260508151612 | 63 | 184 | 8.0 | 10.0 | 0.00 | 0.08 | 0.00 | 93 | 938.1 |
| 20260508150552 | 62 | 180 | 7.0 | 10.0 | 0.00 | 0.09 | 0.00 | 93 | 938.1 |
| 20260508145535 | 62 | 185 | 7.0 | 9.0 | 0.00 | 0.09 | 0.00 | 93 | 938.2 |
| 20260508144718 | 61 | 184 | 6.0 | 9.0 | 0.00 | 0.09 | 0.00 | 94 | 938.3 |
| 20260508143555 | 61 | 184 | 5.0 | 9.0 | 0.00 | 0.09 | 0.00 | 96 | 938.1 |
| 20260508142537 | 60 | 169 | 5.0 | 8.0 | 0.00 | 0.09 | 0.00 | 97 | 938.0 |
| 20260508141522 | 60 | 195 | 3.0 | 5.0 | 0.00 | 0.09 | 0.00 | 97 | 938.1 |
| 20260508140610 | 59 | 186 | 3.0 | 5.0 | 0.00 | 0.09 | 0.00 | 97 | 938.1 |
| 20260508135557 | 59 | 202 | 3.0 | 9.0 | 0.00 | 0.09 | 0.00 | 97 | 937.9 |
| 20260508134544 | 58 | 198 | 3.0 | 8.0 | 0.00 | 0.09 | 0.00 | 97 | 937.9 |
| 20260508133532 | 58 | 191 | 4.0 | 9.0 | 0.00 | 0.09 | 0.00 | 97 | 937.9 |
| 20260508132520 | 58 | 225 | 3.0 | 8.0 | 0.00 | 0.09 | 0.00 | 96 | 937.9 |
| 20260508131601 | 57 | 171 | 3.0 | 6.0 | 0.00 | 0.09 | 0.00 | 96 | 937.8 |
| 20260508130546 | 57 | 185 | 3.0 | 8.0 | 0.00 | 0.09 | 0.00 | 96 | 938.0 |
| 20260508125524 | 57 | 220 | 4.0 | 7.0 | 0.00 | 0.09 | 0.00 | 96 | 937.8 |
| 20260508124630 | 57 | 167 | 2.0 | 4.0 | 0.00 | 0.09 | 0.00 | 96 | 937.8 |
| 20260508123611 | 56 | 213 | 2.0 | 4.0 | 0.00 | 0.09 | 0.00 | 95 | 937.7 |
| 20260508122529 | 57 | 202 | 2.0 | 5.0 | 0.00 | 0.09 | 0.00 | 94 | 937.8 |
| 20260508121649 | 57 | 187 | 2.0 | 6.0 | 0.00 | 0.09 | 0.00 | 94 | 938.3 |
| 20260508120551 | 57 | 224 | 3.0 | 7.0 | 0.00 | 0.09 | 0.00 | 93 | 938.4 |
| 20260508115537 | 57 | 213 | 1.0 | 4.0 | 0.00 | 0.09 | 0.00 | 93 | 938.4 |
| 20260508114522 | 57 | 167 | 3.0 | 9.0 | 0.00 | 0.10 | 0.00 | 93 | 938.3 |
| 20260508113610 | 57 | 171 | 3.0 | 7.0 | 0.00 | 0.10 | 0.00 | 93 | 938.1 |
| 20260508112555 | 57 | 191 | 4.0 | 8.0 | 0.00 | 0.10 | 0.00 | 93 | 938.1 |
| 20260508111532 | 57 | 195 | 2.0 | 5.0 | 0.00 | 0.10 | 0.00 | 92 | 938.0 |
| 20260508110541 | 57 | 166 | 3.0 | 9.0 | 0.00 | 0.10 | 0.00 | 91 | 938.0 |
| 20260508105607 | 57 | 180 | 3.0 | 6.0 | 0.00 | 0.10 | 0.00 | 91 | 938.0 |
| 20260508104554 | 57 | 113 | 3.0 | 7.0 | 0.00 | 0.10 | 0.00 | 90 | 938.0 |
| 20260508103554 | 57 | 206 | 2.0 | 6.0 | 0.00 | 0.10 | 0.00 | 88 | 937.8 |
| 20260508102521 | 57 | 213 | 4.0 | 9.0 | 0.00 | 0.10 | 0.00 | 87 | 937.9 |
| 20260508101629 | 57 | 173 | 1.0 | 6.0 | 0.00 | 0.10 | 0.00 | 86 | 938.0 |
| 20260508100553 | 57 | 235 | 3.0 | 7.0 | 0.00 | 0.10 | 0.00 | 85 | 938.2 |
| 20260508095540 | 57 | 27 | 2.0 | 10.0 | 0.00 | 0.10 | 0.00 | 83 | 938.3 |
| 20260508094527 | 57 | 260 | 0.0 | 7.0 | 0.00 | 0.10 | 0.00 | 83 | 938.4 |
| 20260508093615 | 57 | 354 | 3.0 | 8.0 | 0.00 | 0.10 | 0.00 | 82 | 938.4 |
| 20260508092556 | 57 | 309 | 2.0 | 10.0 | 0.00 | 0.10 | 0.00 | 82 | 938.4 |
| 20260508091538 | 57 | 220 | 3.0 | 7.0 | 0.00 | 0.10 | 0.00 | 82 | 938.4 |
| 20260508090536 | 57 | 179 | 2.0 | 4.0 | 0.00 | 0.10 | 0.00 | 81 | 938.2 |
| 20260508085619 | 57 | 174 | 3.0 | 5.0 | 0.00 | 0.10 | 0.00 | 80 | 938.2 |
| 20260508084539 | 57 | 166 | 3.0 | 6.0 | 0.00 | 0.11 | 0.00 | 80 | 937.9 |
| 20260508083526 | 57 | 164 | 2.0 | 5.0 | 0.00 | 0.11 | 0.00 | 79 | 937.9 |
| 20260508082614 | 57 | 137 | 3.0 | 7.0 | 0.00 | 0.11 | 0.00 | 79 | 937.8 |
| 20260508081553 | 57 | 167 | 3.0 | 8.0 | 0.00 | 0.11 | 0.00 | 79 | 937.7 |
| 20260508080540 | 57 | 172 | 3.0 | 7.0 | 0.00 | 0.11 | 0.00 | 79 | 938.0 |
| 20260508075527 | 57 | 160 | 3.0 | 8.0 | 0.00 | 0.11 | 0.00 | 79 | 938.2 |
| 20260508074615 | 57 | 174 | 3.0 | 9.0 | 0.00 | 0.11 | 0.00 | 80 | 938.4 |
| 20260508073601 | 57 | 186 | 4.0 | 6.0 | 0.00 | 0.11 | 0.00 | 80 | 938.5 |
| 20260508072546 | 57 | 183 | 5.0 | 9.0 | 0.00 | 0.11 | 0.00 | 79 | 938.3 |
| 20260508071533 | 58 | 186 | 4.0 | 7.0 | 0.00 | 0.11 | 0.00 | 77 | 938.1 |
| 20260508070520 | 58 | 182 | 3.0 | 5.0 | 0.00 | 0.11 | 0.00 | 77 | 938.0 |
| 20260508065602 | 58 | 169 | 3.0 | 6.0 | 0.00 | 0.11 | 0.00 | 77 | 937.9 |
| 20260508064608 | 58 | 178 | 2.0 | 5.0 | 0.00 | 0.11 | 0.00 | 76 | 937.9 |